^^
Meteo Knjazevac Station Historical Data
Daily Summary for July 11, 2021 Units:  English    Metric   Both
Daily Weekly Monthly Yearly Custom
  High: Low: Average:
Temperature: 84.7 °F 55.2 °F 63.7 °F
Dew Point: 65.2 °F 51.1 °F 55.6 °F
Humidity: 88% 51% 76%
Wind Speed: 3mph 0mph 0.8mph
Wind Gust: 9mph - -
Wind- - South
Pressure: 30.06 in 30.01 in -
Precipitation: 0.00 in    
Historical Graphs
 
 
Tabular Data for July 11, 2021
Time Temperature Dew Point Pressure Wind Wind Speed Wind Gust Humidity Rainfall Rate (Hourly) solar Conditions
00:00 66 °F 56.7 °F 30.04 in Calm   3 mph 72% 0.00 in 0 W/m2
00:10 65.8 °F 56.9 °F 30.04 in WNW 1 mph 2 mph 73% 0.00 in 0 W/m2
00:20 64.9 °F 56.5 °F 30.04 in Calm   2 mph 74% 0.00 in 0 W/m2
00:30 64.6 °F 56.5 °F 30.03 in Calm   1 mph 75% 0.00 in 0 W/m2
00:40 64 °F 55.9 °F 30.03 in SW 1 mph 3 mph 75% 0.00 in 0 W/m2
00:50 63.3 °F 55.3 °F 30.04 in West 2 mph 5 mph 75% 0.00 in 0 W/m2
01:00 63.1 °F 54.7 °F 30.03 in WNW 1 mph 3 mph 74% 0.00 in 0 W/m2
01:10 63 °F 54.9 °F 30.03 in West 1 mph 3 mph 75% 0.00 in 0 W/m2
01:20 62.6 °F 54.6 °F 30.03 in Calm   2 mph 75% 0.00 in 0 W/m2
01:30 62.6 °F 54.6 °F 30.03 in Calm   2 mph 75% 0.00 in 0 W/m2
01:40 62.1 °F 54.8 °F 30.03 in WSW 1 mph 2 mph 77% 0.00 in 0 W/m2
01:50 61.4 °F 54.5 °F 30.03 in WSW 2 mph 3 mph 78% 0.00 in 0 W/m2
02:00 60.6 °F 53.7 °F 30.03 in West 2 mph 4 mph 78% 0.00 in 0 W/m2
02:10 60.3 °F 53.4 °F 30.03 in West 1 mph 3 mph 78% 0.00 in 0 W/m2
02:20 60.1 °F 53.2 °F 30.03 in WNW 1 mph 2 mph 78% 0.00 in 0 W/m2
02:30 59.9 °F 53 °F 30.03 in Calm   2 mph 78% 0.00 in 0 W/m2
02:40 59.6 °F 53.1 °F 30.03 in Calm   2 mph 79% 0.00 in 0 W/m2
02:50 59.7 °F 53.2 °F 30.03 in Calm   2 mph 79% 0.00 in 0 W/m2
03:00 59.4 °F 53.2 °F 30.03 in Calm   2 mph 80% 0.00 in 0 W/m2
03:10 59.3 °F 53.1 °F 30.03 in Calm   1 mph 80% 0.00 in 0 W/m2
03:20 58.7 °F 52.6 °F 30.02 in Calm   2 mph 80% 0.00 in 0 W/m2
03:30 58.3 °F 52.5 °F 30.03 in Calm   1 mph 81% 0.00 in 0 W/m2
03:40 57.7 °F 52.6 °F 30.03 in West 1 mph 2 mph 83% 0.00 in 0 W/m2
03:50 57.6 °F 52.4 °F 30.02 in Calm   3 mph 83% 0.00 in 0 W/m2
04:00 57.2 °F 52.1 °F 30.03 in West 1 mph 2 mph 83% 0.00 in 0 W/m2
04:10 57.2 °F 52.1 °F 30.03 in NNW 1 mph 2 mph 83% 0.00 in 0 W/m2
04:20 57 °F 52.2 °F 30.03 in Calm   2 mph 84% 0.00 in 0 W/m2
04:30 56.8 °F 52.1 °F 30.03 in WNW 1 mph 2 mph 84% 0.00 in 0 W/m2
04:40 56.7 °F 51.9 °F 30.04 in Calm   2 mph 84% 0.00 in 0 W/m2
04:50 56.5 °F 52 °F 30.04 in North 1 mph 4 mph 85% 0.00 in 0 W/m2
05:00 56.2 °F 51.7 °F 30.04 in Calm   2 mph 85% 0.00 in 3 W/m2
05:10 55.9 °F 51.5 °F 30.04 in Calm   1 mph 85% 0.00 in 8 W/m2
05:20 55.6 °F 51.1 °F 30.04 in North 2 mph 3 mph 85% 0.00 in 16 W/m2
05:30 55.6 °F 51.5 °F 30.04 in Calm   2 mph 86% 0.00 in 24 W/m2
05:40 55.4 °F 51.3 °F 30.05 in WNW 1 mph 2 mph 86% 0.00 in 32 W/m2
05:50 55.2 °F 51.4 °F 30.05 in Calm   2 mph 87% 0.00 in 41 W/m2
06:00 55.2 °F 51.1 °F 30.05 in Calm   2 mph 86% 0.00 in 49 W/m2
06:10 55.4 °F 51.6 °F 30.05 in Calm   2 mph 87% 0.00 in 95 W/m2
06:20 55.6 °F 51.5 °F 30.05 in Calm   1 mph 86% 0.00 in 116 W/m2
06:30 55.8 °F 51.6 °F 30.05 in Calm   2 mph 86% 0.00 in 145 W/m2
06:40 55.9 °F 52.1 °F 30.05 in Calm   1 mph 87% 0.00 in 172 W/m2
06:50 56.4 °F 52.9 °F 30.06 in West 1 mph 2 mph 88% 0.00 in 202 W/m2
07:00 56.8 °F 52.7 °F 30.06 in NNW 1 mph 3 mph 86% 0.00 in 231 W/m2
07:10 57.6 °F 53.4 °F 30.06 in West 1 mph 3 mph 86% 0.00 in 269 W/m2
07:20 58.1 °F 53.3 °F 30.06 in Calm   2 mph 84% 0.00 in 302 W/m2
07:30 59.1 °F 54 °F 30.05 in West 1 mph 3 mph 83% 0.00 in 333 W/m2
07:40 59.9 °F 54.1 °F 30.05 in Calm   2 mph 81% 0.00 in 367 W/m2
07:50 60.8 °F 54.6 °F 30.05 in Calm   2 mph 80% 0.00 in 399 W/m2
08:00 61.8 °F 55.2 °F 30.05 in WSW 1 mph 3 mph 79% 0.00 in 437 W/m2
08:10 62.5 °F 55.6 °F 30.05 in Calm   2 mph 78% 0.00 in 481 W/m2
08:20 63.6 °F 56.6 °F 30.05 in SSE 1 mph 4 mph 78% 0.00 in 520 W/m2
08:30 64.9 °F 57.5 °F 30.05 in ENE 2 mph 6 mph 77% 0.00 in 555 W/m2
08:40 66 °F 57.5 °F 30.04 in NNE 1 mph 6 mph 74% 0.00 in 590 W/m2
08:50 67 °F 57.7 °F 30.04 in Calm   6 mph 72% 0.00 in 620 W/m2
09:00 68.8 °F 58.2 °F 30.04 in North 2 mph 5 mph 69% 0.00 in 650 W/m2
09:10 71.3 °F 60.2 °F 30.04 in NNE 2 mph 7 mph 68% 0.00 in 677 W/m2
09:20 73.2 °F 60.2 °F 30.04 in NE 2 mph 7 mph 64% 0.00 in 702 W/m2
09:30 74.8 °F 61.4 °F 30.04 in NNE 3 mph 7 mph 63% 0.00 in 727 W/m2
09:40 75.9 °F 62.4 °F 30.04 in NNE 2 mph 7 mph 63% 0.00 in 751 W/m2
09:50 76.9 °F 62.5 °F 30.04 in NNW 1 mph 4 mph 61% 0.00 in 774 W/m2
10:00 78.2 °F 63.2 °F 30.04 in NNW 1 mph 5 mph 60% 0.00 in 796 W/m2
10:10 79.2 °F 63.6 °F 30.03 in NNE 1 mph 6 mph 59% 0.00 in 817 W/m2
10:20 80 °F 63.9 °F 30.03 in NE 3 mph 7 mph 58% 0.00 in 836 W/m2
10:30 80.7 °F 65.1 °F 30.03 in NE 1 mph 9 mph 59% 0.00 in 855 W/m2
10:40 82 °F 65.2 °F 30.03 in NNE 2 mph 6 mph 57% 0.00 in 872 W/m2
10:50 82.9 °F 64.5 °F 30.02 in NNE 1 mph 5 mph 54% 0.00 in 170 W/m2
11:00 83.5 °F 64.5 °F 30.02 in NNE 3 mph 6 mph 53% 0.00 in 902 W/m2
11:10 84 °F 63.9 °F 30.02 in ENE 2 mph 6 mph 51% 0.00 in 915 W/m2
11:20 84.7 °F 64.6 °F 30.01 in ENE 1 mph 5 mph 51% 0.00 in 916 W/m2
Knjazevac, Serbia
Compliments of Weather Underground - 2 mb